createdAt,value
2022-12-31T00:02:23.825Z,10.07
2022-12-31T00:05:27.193Z,9.90
2022-12-31T00:08:31.814Z,8.30
2022-12-31T00:11:36.603Z,9.00
2022-12-31T00:14:39.798Z,9.07
2022-12-31T00:17:43.033Z,9.20
2022-12-31T00:20:46.187Z,8.33
2022-12-31T00:23:50.863Z,8.27
2022-12-31T00:26:54.056Z,9.80
2022-12-31T00:30:00.920Z,9.53
2022-12-31T00:33:07.497Z,9.00
2022-12-31T00:36:13.994Z,9.00
2022-12-31T00:39:18.501Z,9.20
2022-12-31T00:42:21.641Z,9.17
2022-12-31T00:45:24.815Z,8.97
2022-12-31T00:48:28.463Z,8.13
2022-12-31T00:51:31.883Z,8.97
2022-12-31T00:54:36.968Z,12.00
2022-12-31T00:57:40.154Z,10.10
2022-12-31T01:00:43.305Z,10.63
2022-12-31T01:03:47.361Z,9.33
2022-12-31T01:06:50.550Z,9.03
2022-12-31T01:09:55.053Z,10.23
2022-12-31T01:12:58.271Z,9.40
2022-12-31T01:16:08.937Z,9.23
2022-12-31T01:19:14.460Z,9.63
2022-12-31T01:22:17.822Z,9.63
2022-12-31T01:25:22.463Z,9.93
2022-12-31T01:28:25.752Z,14.13
2022-12-31T01:31:29.438Z,13.77
2022-12-31T01:34:32.804Z,14.63
2022-12-31T01:37:35.953Z,12.37
2022-12-31T01:40:41.868Z,12.20
2022-12-31T01:43:50.419Z,10.17
2022-12-31T01:46:56.019Z,9.00
2022-12-31T01:50:04.255Z,9.77
2022-12-31T01:53:09.383Z,10.40
2022-12-31T01:56:14.457Z,9.07
2022-12-31T01:59:19.917Z,12.57
2022-12-31T02:02:23.893Z,16.77
2022-12-31T02:05:31.776Z,17.00
2022-12-31T02:08:41.802Z,16.00
2022-12-31T02:11:46.750Z,16.00
2022-12-31T02:14:54.342Z,16.20
2022-12-31T02:18:04.643Z,15.70
2022-12-31T02:21:32.241Z,16.73
2022-12-31T02:25:10.018Z,16.40
2022-12-31T02:28:26.616Z,15.67
2022-12-31T02:31:35.273Z,15.77
2022-12-31T02:34:42.682Z,14.27
2022-12-31T02:37:49.266Z,15.67
2022-12-31T02:40:54.341Z,15.23
2022-12-31T02:43:57.572Z,16.00
2022-12-31T02:47:11.440Z,12.67
2022-12-31T02:50:31.647Z,12.30
2022-12-31T02:53:53.968Z,8.70
2022-12-31T02:57:06.610Z,7.97
2022-12-31T03:00:30.746Z,8.97
2022-12-31T03:03:36.905Z,7.47
2022-12-31T03:06:41.095Z,7.70
2022-12-31T03:09:44.276Z,7.60
2022-12-31T03:12:48.587Z,6.97
2022-12-31T03:15:52.157Z,6.57
2022-12-31T03:19:13.768Z,7.17
2022-12-31T03:22:29.347Z,6.90
2022-12-31T03:25:35.458Z,7.60
2022-12-31T03:28:40.786Z,6.43
2022-12-31T03:31:43.963Z,6.47
2022-12-31T03:34:48.664Z,6.17
2022-12-31T03:37:52.371Z,6.70
2022-12-31T03:40:55.569Z,6.53
2022-12-31T03:43:58.777Z,6.60
2022-12-31T03:47:02.001Z,7.50
2022-12-31T03:50:08.847Z,6.57
2022-12-31T03:53:12.398Z,6.70
2022-12-31T03:56:15.560Z,7.13
2022-12-31T03:59:18.749Z,6.77
2022-12-31T04:02:28.047Z,7.10
2022-12-31T04:05:33.792Z,7.17
2022-12-31T04:08:37.024Z,6.30
2022-12-31T04:11:40.193Z,6.00
2022-12-31T04:14:43.434Z,6.70
2022-12-31T04:17:46.714Z,6.17
2022-12-31T04:20:51.278Z,6.87
2022-12-31T04:23:54.488Z,6.30
2022-12-31T04:27:03.572Z,6.87
2022-12-31T04:30:09.846Z,11.70
2022-12-31T04:33:13.116Z,11.73
2022-12-31T04:36:17.843Z,11.37
2022-12-31T04:39:21.025Z,13.07
2022-12-31T04:42:24.286Z,11.63
2022-12-31T04:45:27.453Z,13.33
2022-12-31T04:48:30.623Z,11.43
2022-12-31T04:51:35.390Z,13.30
2022-12-31T04:54:38.588Z,12.03
2022-12-31T04:57:43.795Z,8.40
2022-12-31T05:00:49.835Z,7.27
2022-12-31T05:03:53.106Z,8.20
2022-12-31T05:06:57.684Z,9.13
2022-12-31T05:10:00.865Z,9.00
2022-12-31T05:13:04.079Z,8.27
2022-12-31T05:16:08.709Z,11.40
2022-12-31T05:19:11.900Z,10.70
2022-12-31T05:22:31.888Z,8.87
2022-12-31T05:25:35.871Z,9.87
2022-12-31T05:28:39.066Z,15.30
2022-12-31T05:31:42.241Z,10.17
2022-12-31T05:34:45.789Z,8.40
2022-12-31T05:37:50.334Z,12.80
2022-12-31T05:41:00.994Z,10.50
2022-12-31T05:44:04.232Z,11.47
2022-12-31T05:47:07.419Z,7.77
2022-12-31T05:50:13.309Z,8.33
2022-12-31T05:53:17.916Z,6.80
2022-12-31T05:56:21.192Z,7.50
2022-12-31T05:59:24.393Z,6.33
2022-12-31T06:02:27.818Z,6.77
2022-12-31T06:05:31.004Z,7.40
2022-12-31T06:08:35.642Z,6.53
2022-12-31T06:11:38.821Z,6.57
2022-12-31T06:14:45.612Z,6.20
2022-12-31T06:17:49.127Z,6.20
2022-12-31T06:20:52.299Z,6.17
2022-12-31T06:23:57.153Z,5.90
2022-12-31T06:27:00.342Z,5.73
2022-12-31T06:30:03.566Z,5.77
2022-12-31T06:33:06.832Z,5.43
2022-12-31T06:36:13.510Z,6.00
2022-12-31T06:39:18.170Z,6.67
2022-12-31T06:42:21.381Z,5.43
2022-12-31T06:45:24.567Z,6.00
2022-12-31T06:48:30.367Z,5.83
2022-12-31T06:51:33.600Z,5.80
2022-12-31T06:54:39.027Z,5.20
2022-12-31T06:57:43.294Z,6.07
2022-12-31T07:00:56.607Z,6.10
2022-12-31T07:04:09.604Z,6.00
2022-12-31T07:07:21.277Z,6.40
2022-12-31T07:10:37.881Z,6.20
2022-12-31T07:13:55.555Z,5.73
2022-12-31T07:17:07.965Z,6.33
2022-12-31T07:20:13.740Z,6.03
2022-12-31T07:23:17.467Z,5.50
2022-12-31T07:26:35.201Z,5.93
2022-12-31T07:29:48.642Z,9.17
2022-12-31T07:33:20.494Z,10.20
2022-12-31T07:36:54.653Z,13.23
2022-12-31T07:40:05.180Z,13.07
2022-12-31T07:43:16.292Z,12.67
2022-12-31T07:46:27.660Z,12.03
2022-12-31T07:49:32.316Z,12.70
2022-12-31T07:52:36.094Z,11.97
2022-12-31T07:55:39.319Z,12.97
2022-12-31T07:58:59.117Z,12.23
2022-12-31T08:02:08.403Z,12.53
2022-12-31T08:05:19.525Z,13.80
2022-12-31T08:08:35.415Z,12.70
2022-12-31T08:11:49.165Z,13.10
2022-12-31T08:14:54.192Z,11.63
2022-12-31T08:17:58.021Z,11.00
2022-12-31T08:21:23.838Z,12.23
2022-12-31T08:24:36.643Z,11.83
2022-12-31T08:27:46.466Z,11.10
2022-12-31T08:30:59.211Z,10.50
2022-12-31T08:34:09.412Z,10.70
2022-12-31T08:37:19.409Z,11.60
2022-12-31T08:40:28.154Z,10.60
2022-12-31T08:43:44.513Z,10.40
2022-12-31T08:46:54.645Z,10.30
2022-12-31T08:49:58.464Z,11.00
2022-12-31T08:53:02.534Z,10.80
2022-12-31T08:56:13.859Z,10.90
2022-12-31T08:59:31.020Z,12.13
2022-12-31T09:03:05.811Z,11.97
2022-12-31T09:06:20.327Z,12.90
2022-12-31T09:09:32.270Z,11.80
2022-12-31T09:12:39.524Z,12.47
2022-12-31T09:15:47.729Z,12.13
2022-12-31T09:18:52.316Z,13.33
2022-12-31T09:21:56.218Z,11.63
2022-12-31T09:25:00.053Z,12.67
2022-12-31T09:28:15.129Z,13.70
2022-12-31T09:31:23.101Z,13.43
2022-12-31T09:34:33.312Z,12.37
2022-12-31T09:37:42.042Z,11.83
2022-12-31T09:40:54.013Z,9.90
2022-12-31T09:44:41.328Z,9.70
2022-12-31T09:48:27.436Z,9.23
2022-12-31T09:51:33.335Z,9.33
2022-12-31T09:54:53.409Z,7.70
2022-12-31T09:58:09.111Z,30.00
2022-12-31T10:01:24.027Z,11.90
2022-12-31T10:04:49.307Z,7.70
2022-12-31T10:08:00.651Z,7.10
2022-12-31T10:11:10.715Z,7.10
2022-12-31T10:14:40.987Z,8.90
2022-12-31T10:17:59.406Z,14.37
2022-12-31T10:21:26.980Z,19.57
2022-12-31T10:24:59.797Z,15.37
2022-12-31T10:28:15.374Z,29.20
2022-12-31T10:31:40.129Z,8.40
2022-12-31T10:34:54.763Z,7.07
2022-12-31T10:38:07.612Z,5.10
2022-12-31T10:41:54.430Z,4.93
2022-12-31T10:45:36.146Z,5.10
2022-12-31T10:49:11.068Z,4.50
2022-12-31T10:53:06.080Z,5.10
2022-12-31T10:56:41.678Z,4.93
2022-12-31T11:00:17.493Z,5.63
2022-12-31T11:03:57.282Z,4.37
2022-12-31T11:07:39.172Z,4.80
2022-12-31T11:11:15.889Z,6.97
2022-12-31T11:14:48.336Z,6.23
2022-12-31T11:18:03.615Z,5.77
2022-12-31T11:21:28.417Z,5.00
2022-12-31T11:24:44.174Z,4.90
2022-12-31T11:28:11.322Z,4.97
2022-12-31T11:31:29.935Z,4.40
2022-12-31T11:34:53.839Z,4.80
2022-12-31T11:38:11.245Z,5.60
2022-12-31T11:41:22.477Z,3.60
2022-12-31T11:44:37.292Z,3.63
2022-12-31T11:48:29.145Z,4.70
2022-12-31T11:51:44.258Z,3.63
2022-12-31T11:55:11.204Z,4.27
2022-12-31T11:58:17.171Z,11.53
2022-12-31T12:01:23.881Z,11.20
2022-12-31T12:04:27.297Z,9.83
2022-12-31T12:07:33.941Z,12.47
2022-12-31T12:10:42.228Z,14.57
2022-12-31T12:13:45.445Z,14.57
2022-12-31T12:16:54.431Z,13.73
2022-12-31T12:20:04.825Z,18.33
2022-12-31T12:23:18.649Z,16.40
2022-12-31T12:26:31.126Z,16.83
2022-12-31T12:29:36.318Z,15.77
2022-12-31T12:32:39.845Z,12.57
2022-12-31T12:35:43.007Z,12.80
2022-12-31T12:38:47.722Z,12.03
2022-12-31T12:42:03.585Z,12.40
2022-12-31T12:45:15.239Z,11.53
2022-12-31T12:48:30.998Z,11.70
2022-12-31T12:51:45.755Z,13.37
2022-12-31T12:55:06.293Z,11.40
2022-12-31T12:58:19.680Z,13.10
2022-12-31T13:01:31.412Z,12.63
2022-12-31T13:04:48.765Z,11.17
2022-12-31T13:08:03.849Z,13.30
2022-12-31T13:11:25.958Z,12.07
2022-12-31T13:14:36.069Z,11.40
2022-12-31T13:18:01.628Z,12.80
2022-12-31T13:21:19.257Z,11.03
2022-12-31T13:24:36.515Z,11.50
2022-12-31T13:27:44.622Z,10.93
2022-12-31T13:30:51.963Z,12.13
2022-12-31T13:34:00.503Z,12.20
2022-12-31T13:37:07.928Z,12.40
2022-12-31T13:40:20.873Z,12.47
2022-12-31T13:43:35.840Z,13.43
2022-12-31T13:46:44.220Z,13.50
2022-12-31T13:49:53.178Z,18.80
2022-12-31T13:52:59.799Z,15.10
2022-12-31T13:56:07.477Z,14.43
2022-12-31T13:59:17.483Z,13.93
2022-12-31T14:02:32.665Z,14.73
2022-12-31T14:05:39.596Z,14.07
2022-12-31T14:08:42.806Z,14.50
2022-12-31T14:12:03.564Z,13.33
2022-12-31T14:15:17.903Z,14.70
2022-12-31T14:18:29.372Z,12.97
2022-12-31T14:21:38.802Z,13.67
2022-12-31T14:24:46.387Z,15.47
2022-12-31T14:27:53.301Z,20.87
2022-12-31T14:31:05.891Z,16.00
2022-12-31T14:34:16.895Z,18.90
2022-12-31T14:37:31.042Z,14.80
2022-12-31T14:40:46.997Z,12.73
2022-12-31T14:44:01.284Z,11.60
2022-12-31T14:47:18.233Z,11.13
2022-12-31T14:50:26.242Z,9.33
2022-12-31T14:53:30.608Z,11.20
2022-12-31T14:56:41.681Z,10.73
2022-12-31T14:59:55.484Z,11.00
2022-12-31T15:03:02.865Z,11.80
2022-12-31T15:06:20.215Z,11.33
2022-12-31T15:09:51.290Z,11.97
2022-12-31T15:13:06.721Z,11.07
2022-12-31T15:16:34.174Z,13.70
2022-12-31T15:20:17.804Z,13.40
2022-12-31T15:23:24.400Z,13.60
2022-12-31T15:26:31.284Z,12.80
2022-12-31T15:29:37.918Z,13.67
2022-12-31T15:32:43.824Z,14.13
2022-12-31T15:35:52.460Z,14.60
2022-12-31T15:39:07.534Z,12.97
2022-12-31T15:42:38.721Z,13.13
2022-12-31T15:45:44.345Z,12.00
2022-12-31T15:48:55.452Z,11.27
2022-12-31T15:52:05.878Z,11.10
2022-12-31T15:55:15.771Z,10.77
2022-12-31T15:58:22.234Z,10.63
2022-12-31T16:01:29.813Z,11.93
2022-12-31T16:04:33.786Z,11.23
2022-12-31T16:07:40.084Z,11.87
2022-12-31T16:10:45.635Z,11.40
2022-12-31T16:13:52.107Z,14.37
2022-12-31T16:16:57.755Z,13.33
2022-12-31T16:20:02.368Z,12.60
2022-12-31T16:23:22.352Z,15.73
2022-12-31T16:26:31.272Z,15.07
2022-12-31T16:29:36.681Z,15.10
2022-12-31T16:32:41.037Z,16.33
2022-12-31T16:35:44.640Z,15.87
2022-12-31T16:38:49.495Z,14.60
2022-12-31T16:41:53.883Z,12.67
2022-12-31T16:44:58.774Z,12.40
2022-12-31T16:48:16.537Z,11.47
2022-12-31T16:51:23.840Z,13.97
2022-12-31T16:54:32.115Z,13.37
2022-12-31T16:57:36.103Z,13.00
2022-12-31T17:00:40.280Z,13.00
2022-12-31T17:03:47.166Z,13.23
2022-12-31T17:06:50.363Z,13.23
2022-12-31T17:10:03.480Z,13.00
2022-12-31T17:13:28.682Z,14.30
2022-12-31T17:16:33.131Z,14.97
2022-12-31T17:19:40.004Z,12.10
2022-12-31T17:22:44.105Z,12.93
2022-12-31T17:25:48.771Z,13.40
2022-12-31T17:28:55.261Z,11.77
2022-12-31T17:32:00.888Z,17.30
2022-12-31T17:35:24.312Z,14.50
2022-12-31T17:38:32.900Z,13.93
2022-12-31T17:41:37.462Z,15.67
2022-12-31T17:44:43.343Z,13.97
2022-12-31T17:47:51.068Z,15.50
2022-12-31T17:50:56.034Z,14.30
2022-12-31T17:54:01.149Z,14.33
2022-12-31T17:57:06.371Z,16.13
2022-12-31T18:00:18.785Z,14.00
2022-12-31T18:03:22.252Z,15.90
2022-12-31T18:06:26.726Z,18.13
2022-12-31T18:09:29.886Z,17.60
2022-12-31T18:12:34.601Z,17.20
2022-12-31T18:15:37.862Z,20.17
2022-12-31T18:18:42.319Z,18.97
2022-12-31T18:21:45.907Z,22.00
2022-12-31T18:24:52.335Z,21.07
2022-12-31T18:27:56.913Z,23.87
2022-12-31T18:31:00.431Z,21.93
2022-12-31T18:34:03.794Z,22.37
2022-12-31T18:37:14.013Z,20.50
2022-12-31T18:40:21.174Z,20.53
2022-12-31T18:43:26.166Z,20.03
2022-12-31T18:46:29.712Z,17.77
2022-12-31T18:49:32.881Z,19.80
2022-12-31T18:52:36.117Z,24.10
2022-12-31T18:55:42.331Z,26.20
2022-12-31T18:58:47.687Z,21.20
2022-12-31T19:01:50.920Z,18.50
2022-12-31T19:04:54.146Z,17.33
2022-12-31T19:07:58.144Z,17.53
2022-12-31T19:11:02.774Z,17.57
2022-12-31T19:14:16.461Z,16.53
2022-12-31T19:17:21.550Z,18.50
2022-12-31T19:20:24.813Z,14.80
2022-12-31T19:23:28.019Z,17.70
2022-12-31T19:26:31.146Z,16.40
2022-12-31T19:29:35.656Z,17.10
2022-12-31T19:32:38.809Z,16.90
2022-12-31T19:35:42.652Z,17.37
2022-12-31T19:38:46.602Z,22.50
2022-12-31T19:41:56.418Z,24.30
2022-12-31T19:45:03.859Z,22.90
2022-12-31T19:48:07.298Z,22.20
2022-12-31T19:51:11.707Z,19.97
2022-12-31T19:54:15.236Z,19.23
2022-12-31T19:57:18.397Z,16.00
2022-12-31T20:00:23.427Z,15.40
2022-12-31T20:03:26.962Z,16.53
2022-12-31T20:06:30.255Z,15.30
2022-12-31T20:09:33.418Z,16.20
2022-12-31T20:12:42.226Z,16.37
2022-12-31T20:15:49.231Z,16.50
2022-12-31T20:18:52.391Z,18.07
2022-12-31T20:21:55.613Z,18.40
2022-12-31T20:24:58.734Z,17.73
2022-12-31T20:28:01.927Z,18.93
2022-12-31T20:31:08.664Z,18.03
2022-12-31T20:34:13.400Z,18.10
2022-12-31T20:37:16.582Z,18.07
2022-12-31T20:40:20.230Z,17.70
2022-12-31T20:43:23.425Z,17.37
2022-12-31T20:46:30.104Z,18.23
2022-12-31T20:50:08.948Z,16.93
2022-12-31T20:52:56.596Z,18.13
2022-12-31T20:56:04.217Z,19.27
2022-12-31T20:59:08.960Z,19.07
2022-12-31T21:02:21.433Z,17.90
2022-12-31T21:05:25.194Z,20.60
2022-12-31T21:08:34.526Z,20.30
2022-12-31T21:11:55.421Z,20.70
2022-12-31T21:14:58.649Z,22.40
2022-12-31T21:18:03.233Z,24.43
2022-12-31T21:21:06.649Z,24.37
2022-12-31T21:24:10.163Z,26.37
2022-12-31T21:27:13.429Z,26.80
2022-12-31T21:30:18.769Z,25.30
2022-12-31T21:33:25.505Z,27.47
2022-12-31T21:36:28.765Z,28.00
2022-12-31T21:39:31.907Z,23.70
2022-12-31T21:42:35.117Z,23.47
2022-12-31T21:45:38.508Z,23.13
2022-12-31T21:48:43.041Z,22.53
2022-12-31T21:52:03.725Z,23.57
2022-12-31T21:55:25.281Z,22.20
2022-12-31T21:58:28.767Z,21.83
2022-12-31T22:01:49.561Z,22.87
2022-12-31T22:05:02.998Z,23.10
2022-12-31T22:08:07.325Z,22.73
2022-12-31T22:11:11.127Z,19.53
2022-12-31T22:14:14.326Z,21.37
2022-12-31T22:17:17.565Z,23.23
2022-12-31T22:20:29.519Z,23.50
2022-12-31T22:23:33.938Z,22.90
2022-12-31T22:26:40.371Z,21.97
2022-12-31T22:29:47.764Z,29.70
2022-12-31T22:32:50.997Z,29.73
2022-12-31T22:36:03.700Z,30.10
2022-12-31T22:39:06.861Z,29.17
2022-12-31T22:42:10.010Z,25.17
2022-12-31T22:45:13.296Z,25.40
2022-12-31T22:48:16.502Z,25.57
2022-12-31T22:51:21.910Z,29.00
2022-12-31T22:54:25.080Z,24.67
2022-12-31T22:57:28.219Z,28.13
2022-12-31T23:00:41.704Z,23.53
2022-12-31T23:03:45.081Z,22.50
2022-12-31T23:06:49.639Z,21.50
2022-12-31T23:10:09.925Z,31.90
2022-12-31T23:13:30.967Z,31.43
2022-12-31T23:16:51.669Z,38.17
2022-12-31T23:20:12.370Z,35.50
2022-12-31T23:23:18.249Z,46.93
2022-12-31T23:26:21.388Z,33.17
2022-12-31T23:29:25.274Z,30.60
2022-12-31T23:32:28.466Z,31.07
2022-12-31T23:35:31.621Z,38.50
2022-12-31T23:38:36.222Z,42.20
2022-12-31T23:41:39.379Z,42.70
2022-12-31T23:44:42.658Z,42.47
2022-12-31T23:47:45.811Z,41.80
2022-12-31T23:50:53.519Z,40.73
2022-12-31T23:53:58.797Z,42.57
2022-12-31T23:57:02.064Z,37.80
